Time;durP1;ratioP1;P1;durP2;ratioP2;P2;SDS_P1;SDS_P2;PMS_P1;PMS_P2;Temp;Humidity;BMP_temperature;BMP_pressure;BME280_temperature;BME280_humidity;BME280_pressure;Samples;Min_cycle;Max_cycle;Signal;HPM_P1;HPM_P2
2023/07/04 03:01:36;;;;;;;;;;;13.00;99.90;;;;;;5480044;23;19925;-77
2023/07/04 03:04:01;;;;;;;;;;;13.00;99.90;;;;;;4995312;28;20364;-77
2023/07/04 03:06:27;;;;;;;;;;;12.90;99.90;;;;;;4993786;28;19918;-78
2023/07/04 03:08:53;;;;;;;;;;;12.90;99.90;;;;;;4994839;28;19924;-78
2023/07/04 03:11:18;;;;;;;;;;;12.90;99.90;;;;;;4995142;28;19924;-78
2023/07/04 03:13:44;;;;;;;;;;;12.90;99.90;;;;;;4977480;28;20372;-77
2023/07/04 03:16:09;;;;;;;;;;;12.90;99.90;;;;;;4994884;28;20345;-77
2023/07/04 03:18:35;;;;;;;;;;;12.90;99.90;;;;;;4994769;28;20344;-78
2023/07/04 03:21:01;;;;;;;;;;;12.90;99.90;;;;;;4993507;28;19918;-77
2023/07/04 03:23:26;;;;;;;;;;;12.90;99.90;;;;;;4993136;28;19917;-77
2023/07/04 03:25:52;;;;;;;;;;;12.90;99.90;;;;;;4993454;28;19961;-76
2023/07/04 03:28:17;;;;;;;;;;;12.80;99.90;;;;;;4993938;28;19918;-77
2023/07/04 03:30:43;;;;;;;;;;;12.80;99.90;;;;;;4977193;28;20385;-77
2023/07/04 03:33:08;;;;;;;;;;;12.80;99.90;;;;;;4993163;28;19976;-78
2023/07/04 03:35:37;;;;;;;;;;;12.80;99.90;;;;;;4993244;28;19918;-77
2023/07/04 03:38:02;;;;;;;;;;;12.80;99.90;;;;;;4993261;28;19918;-78
2023/07/04 03:40:28;;;;;;;;;;;12.80;99.90;;;;;;4993082;28;19921;-77
2023/07/04 03:42:53;;;;;;;;;;;12.80;99.90;;;;;;4993230;28;20064;-77
2023/07/04 03:45:19;;;;;;;;;;;12.80;99.90;;;;;;4994736;28;19917;-77
2023/07/04 03:47:44;;;;;;;;;;;12.80;99.90;;;;;;4994655;28;20312;-77
2023/07/04 03:50:13;;;;;;;;;;;12.80;99.90;;;;;;4993078;28;19918;-78
2023/07/04 03:52:38;;;;;;;;;;;12.80;99.90;;;;;;4993365;28;19969;-76
2023/07/04 03:55:04;;;;;;;;;;;12.80;99.90;;;;;;4994598;28;20361;-77
2023/07/04 03:57:30;;;;;;;;;;;12.80;99.90;;;;;;4993419;28;19918;-77
2023/07/04 03:59:55;;;;;;;;;;;12.90;99.90;;;;;;4993092;28;19976;-76
2023/07/04 04:02:21;;;;;;;;;;;12.80;99.90;;;;;;4992937;28;19922;-77
2023/07/04 04:04:47;;;;;;;;;;;12.90;99.90;;;;;;4994534;28;20320;-78
2023/07/04 04:07:12;;;;;;;;;;;12.90;99.90;;;;;;4994642;28;19962;-76
2023/07/04 04:09:38;;;;;;;;;;;12.90;99.90;;;;;;4996812;28;19972;-76
2023/07/04 04:12:04;;;;;;;;;;;12.90;99.90;;;;;;4997087;28;19917;-76
2023/07/04 04:14:30;;;;;;;;;;;13.00;99.90;;;;;;4997155;28;19925;-77
2023/07/04 04:16:57;;;;;;;;;;;12.90;99.90;;;;;;4998141;28;19957;-77
2023/07/04 04:19:23;;;;;;;;;;;13.00;99.90;;;;;;4996859;28;19922;-77
2023/07/04 04:21:48;;;;;;;;;;;13.00;99.90;;;;;;4998023;28;19918;-78
2023/07/04 04:24:14;;;;;;;;;;;13.00;99.90;;;;;;4996685;28;19917;-78
2023/07/04 04:26:40;;;;;;;;;;;13.10;99.90;;;;;;4998025;28;19924;-78
2023/07/04 04:29:06;;;;;;;;;;;13.10;99.90;;;;;;4996596;28;19922;-76
2023/07/04 04:31:37;;;;;;;;;;;13.10;99.90;;;;;;4997859;28;19917;-77
2023/07/04 04:34:03;;;;;;;;;;;13.10;99.90;;;;;;4996586;28;20000;-76
2023/07/04 04:36:30;;;;;;;;;;;13.20;99.90;;;;;;4996646;28;20417;-75
2023/07/04 04:38:55;;;;;;;;;;;13.20;99.90;;;;;;4996521;28;20032;-77
2023/07/04 04:41:21;;;;;;;;;;;13.30;99.90;;;;;;4997636;28;19968;-77
2023/07/04 04:43:49;;;;;;;;;;;13.30;99.90;;;;;;4996373;28;19917;-77
2023/07/04 04:46:15;;;;;;;;;;;13.30;99.90;;;;;;4997770;28;19925;-77
2023/07/04 04:48:41;;;;;;;;;;;13.30;99.90;;;;;;4997424;28;19925;-77
2023/07/04 04:51:08;;;;;;;;;;;13.30;99.90;;;;;;4996164;28;19918;-76
2023/07/04 04:53:35;;;;;;;;;;;13.40;99.90;;;;;;4979956;28;19918;-75
2023/07/04 04:56:01;;;;;;;;;;;13.40;99.90;;;;;;4996131;28;19917;-77
2023/07/04 04:58:30;;;;;;;;;;;13.40;99.90;;;;;;4996055;28;19917;-76
2023/07/04 05:00:55;;;;;;;;;;;13.40;99.90;;;;;;4996911;28;19932;-77
2023/07/04 05:03:21;;;;;;;;;;;13.40;99.90;;;;;;4995965;28;19933;-76
2023/07/04 05:05:46;;;;;;;;;;;13.40;99.90;;;;;;4997028;28;19925;-77
2023/07/04 05:08:12;;;;;;;;;;;13.50;99.90;;;;;;4997889;28;20004;-77
2023/07/04 05:10:38;;;;;;;;;;;13.50;99.90;;;;;;4995901;28;19961;-77
2023/07/04 05:13:03;;;;;;;;;;;13.60;99.90;;;;;;4979487;28;20361;-76
2023/07/04 05:15:29;;;;;;;;;;;13.60;99.90;;;;;;4995632;28;19968;-76
2023/07/04 05:17:54;;;;;;;;;;;13.60;99.90;;;;;;4995686;28;19984;-77
2023/07/04 05:20:23;;;;;;;;;;;13.70;99.90;;;;;;4994533;28;19929;-76
2023/07/04 05:22:49;;;;;;;;;;;13.70;99.90;;;;;;4997036;28;20400;-76
2023/07/04 05:25:15;;;;;;;;;;;13.70;99.90;;;;;;4995473;28;19965;-78
2023/07/04 05:27:41;;;;;;;;;;;13.70;99.90;;;;;;4996611;28;19957;-77
2023/07/04 05:30:08;;;;;;;;;;;13.80;99.90;;;;;;4979199;28;19917;-76
2023/07/04 05:32:33;;;;;;;;;;;13.90;99.90;;;;;;4979144;28;19925;-77
2023/07/04 05:34:59;;;;;;;;;;;13.90;99.90;;;;;;4996471;28;19917;-77
2023/07/04 05:37:25;;;;;;;;;;;13.90;99.90;;;;;;4996496;28;20079;-77
2023/07/04 05:39:51;;;;;;;;;;;14.00;99.90;;;;;;4995189;28;19929;-76
2023/07/04 05:42:16;;;;;;;;;;;14.00;99.90;;;;;;4995272;28;20289;-77
2023/07/04 05:44:42;;;;;;;;;;;14.10;99.90;;;;;;4995521;28;20432;-77
2023/07/04 05:47:08;;;;;;;;;;;14.10;99.90;;;;;;4995115;28;20325;-76
2023/07/04 05:49:33;;;;;;;;;;;14.20;99.90;;;;;;4996282;28;20364;-77
2023/07/04 05:51:59;;;;;;;;;;;14.20;99.90;;;;;;4994859;28;19971;-76
2023/07/04 05:54:24;;;;;;;;;;;14.20;99.90;;;;;;4978720;28;19924;-76
2023/07/04 05:56:51;;;;;;;;;;;14.20;99.90;;;;;;4996818;28;19925;-76
2023/07/04 05:59:16;;;;;;;;;;;14.30;99.90;;;;;;4994721;28;19929;-76
2023/07/04 06:01:43;;;;;;;;;;;14.40;99.90;;;;;;4995811;28;19918;-76
2023/07/04 06:04:10;;;;;;;;;;;14.40;99.90;;;;;;4995018;28;20277;-76
2023/07/04 06:06:42;;;;;;;;;;;14.40;99.90;;;;;;4995063;28;20258;-77
2023/07/04 06:09:12;;;;;;;;;;;14.50;99.90;;;;;;4995200;28;19968;-77
2023/07/04 06:11:39;;;;;;;;;;;14.60;99.90;;;;;;4994402;28;20361;-76
2023/07/04 06:14:05;;;;;;;;;;;14.60;99.90;;;;;;4994763;28;19917;-76
2023/07/04 06:16:31;;;;;;;;;;;14.70;99.90;;;;;;4994407;28;19953;-77
2023/07/04 06:18:57;;;;;;;;;;;14.70;99.90;;;;;;4994322;28;19988;-77
2023/07/04 06:21:25;;;;;;;;;;;14.80;99.90;;;;;;4995786;28;19918;-77
2023/07/04 06:23:54;;;;;;;;;;;14.80;99.90;;;;;;4995558;28;19918;-76
2023/07/04 06:26:19;;;;;;;;;;;14.80;99.90;;;;;;4996081;28;19961;-76
2023/07/04 06:28:45;;;;;;;;;;;14.90;99.90;;;;;;4997825;28;20388;-76
2023/07/04 06:31:12;;;;;;;;;;;14.90;99.90;;;;;;4998835;28;19977;-75
2023/07/04 06:33:38;;;;;;;;;;;14.90;99.90;;;;;;4995645;28;19917;-76
2023/07/04 06:36:06;;;;;;;;;;;15.00;99.90;;;;;;4995049;28;20276;-76
2023/07/04 06:38:32;;;;;;;;;;;15.10;99.90;;;;;;4994530;28;19917;-75
2023/07/04 06:41:02;;;;;;;;;;;15.10;99.90;;;;;;4994520;28;19971;-77
2023/07/04 06:43:29;;;;;;;;;;;15.20;99.90;;;;;;4993952;28;19922;-77
2023/07/04 06:45:54;;;;;;;;;;;15.20;99.90;;;;;;4994101;28;19917;-76
2023/07/04 06:48:21;;;;;;;;;;;15.20;99.90;;;;;;4995234;28;20045;-77
2023/07/04 06:50:57;;;;;;;;;;;15.30;99.90;;;;;;4993858;28;19918;-75
2023/07/04 06:53:22;;;;;;;;;;;15.40;99.90;;;;;;4993848;28;19918;-77
2023/07/04 06:55:48;;;;;;;;;;;15.50;99.90;;;;;;4977691;28;19923;-77
2023/07/04 06:58:15;;;;;;;;;;;15.50;99.90;;;;;;4993880;28;20008;-75
2023/07/04 07:00:41;;;;;;;;;;;15.50;99.90;;;;;;4993433;28;19925;-77
2023/07/04 07:03:06;;;;;;;;;;;15.60;99.90;;;;;;4993618;28;19917;-76
2023/07/04 07:05:36;;;;;;;;;;;15.50;99.90;;;;;;4993656;28;19917;-77
2023/07/04 07:08:01;;;;;;;;;;;15.60;99.90;;;;;;4993562;28;20376;-77
2023/07/04 07:10:27;;;;;;;;;;;15.60;99.90;;;;;;4993703;28;19924;-77
2023/07/04 07:12:52;;;;;;;;;;;15.60;99.90;;;;;;4994810;28;20337;-76
2023/07/04 07:15:19;;;;;;;;;;;15.60;99.90;;;;;;4993704;28;20334;-77
2023/07/04 07:17:44;;;;;;;;;;;15.60;99.90;;;;;;4993210;28;19957;-77
2023/07/04 07:20:10;;;;;;;;;;;15.60;99.90;;;;;;4994697;28;19961;-76
2023/07/04 07:22:35;;;;;;;;;;;15.60;99.90;;;;;;4993173;28;19921;-78
2023/07/04 07:25:01;;;;;;;;;;;15.60;99.90;;;;;;4994817;28;19979;-74
2023/07/04 07:27:26;;;;;;;;;;;15.60;99.90;;;;;;4977044;28;19924;-75
2023/07/04 07:29:52;;;;;;;;;;;15.60;99.90;;;;;;4993229;28;19918;-75
2023/07/04 07:32:18;;;;;;;;;;;15.70;99.90;;;;;;4994719;28;19917;-77
2023/07/04 07:34:43;;;;;;;;;;;15.70;99.90;;;;;;4976998;28;20418;-75
2023/07/04 07:37:11;;;;;;;;;;;15.80;99.90;;;;;;4994435;28;20031;-74
2023/07/04 07:39:38;;;;;;;;;;;15.90;99.90;;;;;;4992978;28;19921;-73
2023/07/04 07:42:03;;;;;;;;;;;15.90;99.90;;;;;;4992723;28;19918;-76
2023/07/04 07:44:29;;;;;;;;;;;15.90;99.90;;;;;;4994470;28;20389;-78
2023/07/04 07:46:54;;;;;;;;;;;16.00;99.90;;;;;;4993188;28;20285;-75
2023/07/04 07:49:20;;;;;;;;;;;16.00;99.90;;;;;;4993316;28;19918;-77
2023/07/04 07:51:45;;;;;;;;;;;16.00;99.90;;;;;;4992850;28;19922;-76
2023/07/04 07:54:13;;;;;;;;;;;16.00;99.90;;;;;;4992934;28;19918;-76
2023/07/04 07:56:41;;;;;;;;;;;16.00;99.90;;;;;;4994476;28;19917;-74
2023/07/04 07:59:06;;;;;;;;;;;16.10;99.90;;;;;;4992698;28;20013;-77
2023/07/04 08:01:33;;;;;;;;;;;16.10;99.90;;;;;;4994232;28;20335;-75
2023/07/04 08:03:59;;;;;;;;;;;16.10;99.90;;;;;;4994038;28;20309;-77
2023/07/04 08:06:25;;;;;;;;;;;16.10;99.90;;;;;;4994074;28;19918;-76
2023/07/04 08:08:51;;;;;;;;;;;16.10;99.90;;;;;;4994483;28;20340;-76
2023/07/04 08:11:17;;;;;;;;;;;16.20;99.90;;;;;;4994352;28;20291;-75
2023/07/04 08:13:42;;;;;;;;;;;16.20;99.90;;;;;;4992821;28;19918;-77
2023/07/04 08:16:08;;;;;;;;;;;16.30;99.90;;;;;;4992755;28;19925;-77
2023/07/04 08:18:33;;;;;;;;;;;16.30;99.90;;;;;;4992780;28;20019;-76
2023/07/04 08:21:00;;;;;;;;;;;16.30;99.90;;;;;;4992495;28;19929;-75
2023/07/04 08:23:26;;;;;;;;;;;16.40;99.90;;;;;;4992910;28;20384;-75
2023/07/04 08:25:52;;;;;;;;;;;16.40;99.90;;;;;;4992674;28;19918;-76
2023/07/04 08:28:18;;;;;;;;;;;16.40;99.90;;;;;;4992803;28;19926;-77
2023/07/04 08:30:44;;;;;;;;;;;16.40;99.90;;;;;;4992892;28;19961;-78
2023/07/04 08:33:09;;;;;;;;;;;16.40;99.90;;;;;;4992894;28;19957;-75
2023/07/04 08:35:36;;;;;;;;;;;16.40;99.90;;;;;;4993147;28;19921;-77
2023/07/04 08:38:01;;;;;;;;;;;16.40;99.90;;;;;;4976445;28;19917;-75
2023/07/04 08:40:27;;;;;;;;;;;16.50;99.90;;;;;;4992360;28;19969;-76
2023/07/04 08:42:52;;;;;;;;;;;16.50;99.90;;;;;;4992557;28;19937;-76
2023/07/04 08:45:24;;;;;;;;;;;16.50;99.90;;;;;;4992469;28;19921;-75
2023/07/04 08:47:50;;;;;;;;;;;16.50;99.90;;;;;;4992901;28;19925;-77
2023/07/04 08:50:22;;;;;;;;;;;16.40;99.90;;;;;;4992405;28;19964;-77
2023/07/04 08:52:52;;;;;;;;;;;16.40;99.90;;;;;;4992486;28;19921;-76
2023/07/04 08:55:18;;;;;;;;;;;16.50;99.90;;;;;;4994426;28;20000;-76
2023/07/04 08:57:53;;;;;;;;;;;16.50;99.90;;;;;;4997214;28;19965;-77
2023/07/04 09:00:38;;;;;;;;;;;16.60;99.90;;;;;;4995704;28;19989;-76
2023/07/04 09:03:16;;;;;;;;;;;16.60;99.90;;;;;;4997174;28;19918;-76
2023/07/04 09:05:58;;;;;;;;;;;16.60;99.90;;;;;;4995821;28;19968;-75
2023/07/04 09:08:30;;;;;;;;;;;16.70;99.90;;;;;;4997008;28;19917;-76
2023/07/04 09:11:01;;;;;;;;;;;16.90;99.90;;;;;;4996464;28;19928;-75
2023/07/04 09:13:29;;;;;;;;;;;17.00;99.90;;;;;;4995694;28;20347;-74
2023/07/04 09:15:57;;;;;;;;;;;17.00;99.90;;;;;;4997443;28;19918;-74
2023/07/04 09:18:22;;;;;;;;;;;17.10;99.90;;;;;;4995390;28;19918;-75
2023/07/04 09:20:56;;;;;;;;;;;17.20;99.90;;;;;;4995267;28;19972;-76
2023/07/04 09:23:22;;;;;;;;;;;17.40;99.90;;;;;;4997293;28;20347;-77
2023/07/04 09:25:49;;;;;;;;;;;17.50;99.90;;;;;;4995331;28;20056;-73
2023/07/04 09:28:14;;;;;;;;;;;17.70;99.90;;;;;;4997172;28;20012;-75
2023/07/04 09:30:40;;;;;;;;;;;17.70;99.90;;;;;;4995110;28;20392;-77
2023/07/04 09:33:05;;;;;;;;;;;17.60;99.90;;;;;;4979383;28;20285;-75
2023/07/04 09:35:31;;;;;;;;;;;17.50;99.90;;;;;;4996754;28;20381;-76
2023/07/04 09:37:58;;;;;;;;;;;17.60;99.90;;;;;;4996347;28;19918;-74
2023/07/04 09:40:42;;;;;;;;;;;17.60;99.90;;;;;;4996427;28;20397;-74
2023/07/04 09:43:09;;;;;;;;;;;17.60;99.90;;;;;;4996934;28;19953;-75
2023/07/04 09:45:35;;;;;;;;;;;17.60;99.90;;;;;;4996345;28;19917;-76
2023/07/04 09:48:01;;;;;;;;;;;17.80;99.90;;;;;;4994924;28;19922;-76
2023/07/04 09:50:28;;;;;;;;;;;17.90;99.90;;;;;;4994846;28;20000;-75
2023/07/04 09:53:21;;;;;;;;;;;18.10;99.90;;;;;;4994862;28;19917;-77
2023/07/04 09:56:00;;;;;;;;;;;18.10;99.90;;;;;;4995639;28;19917;-74
2023/07/04 09:58:28;;;;;;;;;;;18.00;99.90;;;;;;4994819;28;19922;-74
2023/07/04 10:01:08;;;;;;;;;;;18.10;99.90;;;;;;4995824;28;20310;-79
2023/07/04 10:03:34;;;;;;;;;;;18.10;99.90;;;;;;4994757;28;19924;-77
2023/07/04 10:06:00;;;;;;;;;;;18.00;99.90;;;;;;4995767;28;19918;-72
2023/07/04 10:08:26;;;;;;;;;;;18.00;99.90;;;;;;4995727;28;20308;-74
2023/07/04 10:10:54;;;;;;;;;;;18.00;99.90;;;;;;4994320;28;19917;-76
2023/07/04 10:13:22;;;;;;;;;;;18.00;99.90;;;;;;4994645;28;19917;-77
2023/07/04 10:15:49;;;;;;;;;;;18.10;99.90;;;;;;4994455;28;20011;-77
2023/07/04 10:18:27;;;;;;;;;;;18.20;99.90;;;;;;4978604;28;20392;-76
2023/07/04 10:20:54;;;;;;;;;;;18.30;99.90;;;;;;4994279;28;19921;-75
2023/07/04 10:23:21;;;;;;;;;;;18.30;99.90;;;;;;4994312;28;19918;-76
2023/07/04 10:25:48;;;;;;;;;;;18.20;99.90;;;;;;4994632;28;20365;-75
2023/07/04 10:28:17;;;;;;;;;;;18.10;99.90;;;;;;4995489;28;19918;-75
2023/07/04 10:30:45;;;;;;;;;;;18.10;99.90;;;;;;4995369;28;20009;-77
2023/07/04 10:33:16;;;;;;;;;;;17.90;99.90;;;;;;4994099;28;19964;-75
2023/07/04 10:35:43;;;;;;;;;;;18.00;99.90;;;;;;4978187;28;19965;-75
2023/07/04 10:38:27;;;;;;;;;;;18.10;99.90;;;;;;4994096;28;20392;-75
2023/07/04 10:40:53;;;;;;;;;;;18.30;99.90;;;;;;4994007;28;19921;-76
2023/07/04 10:43:24;;;;;;;;;;;18.60;99.90;;;;;;4977903;28;19968;-79
2023/07/04 10:45:52;;;;;;;;;;;18.80;99.90;;;;;;4993968;28;19924;-78
2023/07/04 10:48:18;;;;;;;;;;;18.90;99.90;;;;;;4995165;28;20426;-76
2023/07/04 10:50:48;;;;;;;;;;;18.80;99.90;;;;;;4993695;28;19921;-78
2023/07/04 10:53:14;;;;;;;;;;;18.70;99.90;;;;;;4994065;28;20004;-76
2023/07/04 10:55:43;;;;;;;;;;;18.50;99.90;;;;;;4994925;28;20368;-77
2023/07/04 10:58:13;;;;;;;;;;;18.20;99.90;;;;;;4993908;28;20435;-76
2023/07/04 11:00:41;;;;;;;;;;;18.00;99.90;;;;;;4993440;28;19921;-74
2023/07/04 11:03:14;;;;;;;;;;;17.90;99.90;;;;;;4995160;28;19917;-76
2023/07/04 11:05:41;;;;;;;;;;;17.90;99.90;;;;;;4993668;28;19925;-74
2023/07/04 11:08:08;;;;;;;;;;;18.10;99.90;;;;;;4994131;28;19918;-77
2023/07/04 11:10:40;;;;;;;;;;;18.00;99.90;;;;;;4993696;28;19922;-77
2023/07/04 11:13:06;;;;;;;;;;;18.00;99.90;;;;;;4994651;28;19929;-76
2023/07/04 11:15:33;;;;;;;;;;;17.90;99.90;;;;;;4994704;28;19922;-77
2023/07/04 11:17:59;;;;;;;;;;;17.90;99.90;;;;;;4992732;28;19964;-77
2023/07/04 11:20:48;;;;;;;;;;;17.90;99.90;;;;;;4993285;28;19998;-76
2023/07/04 11:23:15;;;;;;;;;;;17.80;99.90;;;;;;4993204;28;19917;-75
2023/07/04 11:25:43;;;;;;;;;;;17.90;99.90;;;;;;4993260;28;19968;-75
2023/07/04 11:28:15;;;;;;;;;;;18.00;99.90;;;;;;4993532;28;20269;-76
2023/07/04 11:30:41;;;;;;;;;;;18.00;99.90;;;;;;4993461;28;19994;-76
2023/07/04 11:33:07;;;;;;;;;;;17.90;99.90;;;;;;4993260;28;20001;-76
2023/07/04 11:35:33;;;;;;;;;;;17.90;99.90;;;;;;4993181;28;19921;-75
2023/07/04 11:38:08;;;;;;;;;;;17.80;99.90;;;;;;4993166;28;19924;-76
2023/07/04 11:41:01;;;;;;;;;;;17.70;99.90;;;;;;4994181;28;19926;-74
2023/07/04 11:43:28;;;;;;;;;;;17.70;99.90;;;;;;4993320;28;19918;-75
2023/07/04 11:45:55;;;;;;;;;;;17.60;99.90;;;;;;4994614;28;20008;-74
2023/07/04 11:48:23;;;;;;;;;;;17.60;99.90;;;;;;4994334;28;19928;-75
2023/07/04 11:50:50;;;;;;;;;;;17.70;99.90;;;;;;4993018;28;19976;-74
2023/07/04 11:53:17;;;;;;;;;;;17.90;99.90;;;;;;4994826;28;19968;-75
2023/07/04 11:55:43;;;;;;;;;;;18.10;99.90;;;;;;4992933;28;19918;-75
2023/07/04 11:58:09;;;;;;;;;;;18.10;99.90;;;;;;4994417;28;19917;-77
2023/07/04 12:00:38;;;;;;;;;;;18.30;99.90;;;;;;4993194;28;20296;-76
2023/07/04 12:03:16;;;;;;;;;;;18.30;99.90;;;;;;4994252;28;20357;-76
2023/07/04 12:05:42;;;;;;;;;;;18.30;99.90;;;;;;4992947;28;19918;-76
2023/07/04 12:08:11;;;;;;;;;;;18.20;99.90;;;;;;4994175;28;20015;-75
2023/07/04 12:10:36;;;;;;;;;;;18.10;99.90;;;;;;4992688;28;19924;-76
2023/07/04 12:13:03;;;;;;;;;;;18.00;99.90;;;;;;4993855;28;19918;-76
2023/07/04 12:15:29;;;;;;;;;;;18.10;99.90;;;;;;4993902;28;20305;-75
2023/07/04 12:17:58;;;;;;;;;;;18.00;99.90;;;;;;4994297;28;19918;-75
2023/07/04 12:20:26;;;;;;;;;;;18.00;99.90;;;;;;4993855;28;20020;-78
2023/07/04 12:22:56;;;;;;;;;;;18.00;99.90;;;;;;4993056;28;19917;-76
2023/07/04 12:25:23;;;;;;;;;;;17.90;99.90;;;;;;4993972;28;19924;-76
2023/07/04 12:27:51;;;;;;;;;;;18.00;99.90;;;;;;4992599;28;20266;-77
2023/07/04 12:30:17;;;;;;;;;;;18.00;99.90;;;;;;4996124;28;19918;-76
2023/07/04 12:32:42;;;;;;;;;;;18.10;99.90;;;;;;4996342;28;19980;-77
2023/07/04 12:35:12;;;;;;;;;;;18.20;99.90;;;;;;4996245;28;20017;-73
2023/07/04 12:37:41;;;;;;;;;;;18.20;99.90;;;;;;4996223;28;20400;-76
2023/07/04 12:40:13;;;;;;;;;;;18.20;99.90;;;;;;4996184;28;19925;-76
2023/07/04 12:42:39;;;;;;;;;;;18.20;99.90;;;;;;4997997;28;19967;-77
2023/07/04 12:45:09;;;;;;;;;;;18.10;99.90;;;;;;4996208;28;20004;-75
2023/07/04 12:47:35;;;;;;;;;;;18.20;99.90;;;;;;4996124;28;19925;-76
2023/07/04 12:50:01;;;;;;;;;;;18.20;99.90;;;;;;4996158;28;19917;-76
2023/07/04 12:52:31;;;;;;;;;;;18.00;99.90;;;;;;4998675;28;19986;-76
2023/07/04 12:54:58;;;;;;;;;;;18.20;99.90;;;;;;4998952;28;19924;-76
2023/07/04 12:57:26;;;;;;;;;;;18.50;99.90;;;;;;4998816;28;19917;-76
2023/07/04 12:59:51;;;;;;;;;;;18.80;99.90;;;;;;4997440;28;20370;-76
2023/07/04 13:02:24;;;;;;;;;;;19.10;99.90;;;;;;4996694;28;19924;-76
2023/07/04 13:04:51;;;;;;;;;;;19.30;99.90;;;;;;4996097;28;20365;-75
2023/07/04 13:07:21;;;;;;;;;;;19.40;99.90;;;;;;4997191;28;19918;-75
2023/07/04 13:09:50;;;;;;;;;;;19.30;99.90;;;;;;4997681;28;19922;-76
2023/07/04 13:12:22;;;;;;;;;;;19.40;99.90;;;;;;4996033;28;20266;-75
2023/07/04 13:14:47;;;;;;;;;;;19.60;99.90;;;;;;4997266;28;20016;-75
2023/07/04 13:17:18;;;;;;;;;;;19.60;99.90;;;;;;4996682;28;19975;-74
2023/07/04 13:19:43;;;;;;;;;;;19.70;99.90;;;;;;4996747;28;19921;-74
2023/07/04 13:22:16;;;;;;;;;;;19.90;99.90;;;;;;4995796;28;19940;-77
2023/07/04 13:24:42;;;;;;;;;;;20.00;99.90;;;;;;4996958;28;19925;-77
2023/07/04 13:27:17;;;;;;;;;;;20.10;99.90;;;;;;4995425;28;19917;-75
2023/07/04 13:29:51;;;;;;;;;;;19.80;99.90;;;;;;4995581;28;19918;-73
2023/07/04 13:32:28;;;;;;;;;;;19.90;99.90;;;;;;4995311;28;19957;-73
2023/07/04 13:34:53;;;;;;;;;;;19.90;99.90;;;;;;4995509;28;19976;-74
2023/07/04 13:37:20;;;;;;;;;;;19.90;99.90;;;;;;4996460;28;19917;-74
2023/07/04 13:39:45;;;;;;;;;;;19.90;99.90;;;;;;4994668;28;19972;-73
2023/07/04 13:42:12;;;;;;;;;;;20.10;99.90;;;;;;4996035;28;19921;-77
2023/07/04 13:44:37;;;;;;;;;;;20.00;99.90;;;;;;4996458;28;19918;-77
2023/07/04 13:47:03;;;;;;;;;;;20.00;99.90;;;;;;4995439;28;19939;-75
2023/07/04 13:49:29;;;;;;;;;;;20.10;99.90;;;;;;4996252;28;19925;-78
2023/07/04 13:51:55;;;;;;;;;;;20.00;99.90;;;;;;4995217;28;19921;-76
2023/07/04 13:54:21;;;;;;;;;;;20.10;99.90;;;;;;4994825;28;19921;-74
2023/07/04 13:56:47;;;;;;;;;;;20.10;99.90;;;;;;4996067;28;19925;-75
2023/07/04 13:59:12;;;;;;;;;;;20.10;99.90;;;;;;4995104;28;19918;-73
2023/07/04 14:01:38;;;;;;;;;;;20.00;99.90;;;;;;4994504;28;19961;-76
2023/07/04 14:04:03;;;;;;;;;;;19.90;99.90;;;;;;4994779;28;19996;-75
2023/07/04 14:06:29;;;;;;;;;;;19.90;99.90;;;;;;4994580;28;20321;-74
2023/07/04 14:08:56;;;;;;;;;;;19.90;99.90;;;;;;4996136;28;19964;-75
2023/07/04 14:11:21;;;;;;;;;;;19.90;99.90;;;;;;4995874;28;19972;-75
2023/07/04 14:13:48;;;;;;;;;;;19.90;99.90;;;;;;4994387;28;20297;-74
2023/07/04 14:16:16;;;;;;;;;;;19.70;99.90;;;;;;4995993;28;19917;-78
2023/07/04 14:18:42;;;;;;;;;;;19.70;99.90;;;;;;4995954;28;19964;-74
2023/07/04 14:21:09;;;;;;;;;;;19.80;99.90;;;;;;4995532;28;19965;-76
2023/07/04 14:23:34;;;;;;;;;;;19.70;99.90;;;;;;4996056;28;20408;-75
2023/07/04 14:26:00;;;;;;;;;;;19.70;99.90;;;;;;4994217;28;19976;-74
2023/07/04 14:28:26;;;;;;;;;;;19.80;99.90;;;;;;4994198;28;19934;-74
2023/07/04 14:30:54;;;;;;;;;;;19.70;99.90;;;;;;4994379;28;20255;-76
2023/07/04 14:33:20;;;;;;;;;;;19.90;99.90;;;;;;4994038;28;19917;-74
2023/07/04 14:35:46;;;;;;;;;;;19.80;99.90;;;;;;4995472;28;19921;-75
2023/07/04 14:38:11;;;;;;;;;;;19.70;99.90;;;;;;4995220;28;19917;-73
2023/07/04 14:40:37;;;;;;;;;;;19.80;99.90;;;;;;4995050;28;19922;-75
2023/07/04 14:43:03;;;;;;;;;;;19.90;99.90;;;;;;4993813;28;20289;-76
2023/07/04 14:45:29;;;;;;;;;;;19.70;99.90;;;;;;4993799;28;19924;-75
2023/07/04 14:47:54;;;;;;;;;;;19.80;99.90;;;;;;4994002;28;19918;-75
2023/07/04 14:50:20;;;;;;;;;;;19.70;99.90;;;;;;4993964;28;19939;-77
2023/07/04 14:52:45;;;;;;;;;;;19.70;99.90;;;;;;4994240;28;20000;-76
2023/07/04 14:55:11;;;;;;;;;;;19.90;99.90;;;;;;4994236;28;20270;-75
2023/07/04 14:57:37;;;;;;;;;;;19.90;99.90;;;;;;4994956;28;20291;-76
2023/07/04 15:00:05;;;;;;;;;;;19.90;99.90;;;;;;4994798;28;19961;-75
2023/07/04 15:02:31;;;;;;;;;;;20.10;99.90;;;;;;4993463;28;19922;-77
2023/07/04 15:04:56;;;;;;;;;;;20.10;99.90;;;;;;4993460;28;19980;-75
2023/07/04 15:07:22;;;;;;;;;;;20.00;99.90;;;;;;4993465;28;19925;-76
2023/07/04 15:09:48;;;;;;;;;;;20.20;99.90;;;;;;4994736;28;19917;-76
2023/07/04 15:12:13;;;;;;;;;;;20.10;99.90;;;;;;4993265;28;20436;-76
2023/07/04 15:14:39;;;;;;;;;;;20.00;99.90;;;;;;4993422;28;19924;-74
2023/07/04 15:17:05;;;;;;;;;;;20.10;99.90;;;;;;4993282;28;20028;-77
2023/07/04 15:19:30;;;;;;;;;;;20.00;99.90;;;;;;4994519;28;19929;-75
2023/07/04 15:21:56;;;;;;;;;;;20.10;99.90;;;;;;4993737;28;19918;-76
2023/07/04 15:24:23;;;;;;;;;;;20.00;99.90;;;;;;4993493;28;19921;-75
2023/07/04 15:26:48;;;;;;;;;;;20.00;99.90;;;;;;4994395;28;20340;-76
2023/07/04 15:29:14;;;;;;;;;;;19.80;99.90;;;;;;4992929;28;19941;-76
2023/07/04 15:31:40;;;;;;;;;;;19.80;99.90;;;;;;4992826;28;19917;-76
2023/07/04 15:34:06;;;;;;;;;;;19.90;99.90;;;;;;4993384;28;19921;-74
2023/07/04 15:36:31;;;;;;;;;;;19.90;99.90;;;;;;4993195;28;20381;-74
2023/07/04 15:38:57;;;;;;;;;;;19.90;99.90;;;;;;4994390;28;19917;-74
2023/07/04 15:41:25;;;;;;;;;;;19.90;99.90;;;;;;4993077;28;19926;-74
2023/07/04 15:43:51;;;;;;;;;;;19.80;99.90;;;;;;4992785;28;19922;-77
2023/07/04 15:46:17;;;;;;;;;;;19.80;99.90;;;;;;4994088;28;19921;-74
2023/07/04 15:48:43;;;;;;;;;;;19.80;99.90;;;;;;4994044;28;20370;-77
2023/07/04 15:51:10;;;;;;;;;;;19.90;99.90;;;;;;4992717;28;19917;-76
2023/07/04 15:53:36;;;;;;;;;;;19.90;99.90;;;;;;4992710;28;19922;-75
2023/07/04 15:56:04;;;;;;;;;;;20.00;99.90;;;;;;4993025;28;19917;-74
2023/07/04 15:58:30;;;;;;;;;;;20.10;99.90;;;;;;4992698;28;19957;-74
2023/07/04 16:00:57;;;;;;;;;;;20.10;99.90;;;;;;4993932;28;20345;-77
2023/07/04 16:03:22;;;;;;;;;;;20.00;99.90;;;;;;4977148;28;19964;-76
2023/07/04 16:05:48;;;;;;;;;;;20.10;99.90;;;;;;4998189;28;19922;-76
2023/07/04 16:08:13;;;;;;;;;;;20.10;99.90;;;;;;4996603;28;19965;-75
2023/07/04 16:10:39;;;;;;;;;;;20.00;99.90;;;;;;4996537;28;19921;-74
2023/07/04 16:13:05;;;;;;;;;;;19.90;99.90;;;;;;4996853;28;19921;-75
2023/07/04 16:15:31;;;;;;;;;;;19.70;99.90;;;;;;4996759;28;19918;-73
2023/07/04 16:17:57;;;;;;;;;;;19.70;99.90;;;;;;4996426;28;19917;-76
2023/07/04 16:20:23;;;;;;;;;;;19.70;99.90;;;;;;4996371;28;19976;-75
2023/07/04 16:22:48;;;;;;;;;;;19.60;99.90;;;;;;4997841;28;20289;-74
2023/07/04 16:25:14;;;;;;;;;;;19.60;99.90;;;;;;4996516;28;19917;-74
2023/07/04 16:27:39;;;;;;;;;;;19.50;99.90;;;;;;4996274;28;19918;-77
2023/07/04 16:30:05;;;;;;;;;;;19.40;99.90;;;;;;4996247;28;19925;-77
2023/07/04 16:32:31;;;;;;;;;;;19.30;99.90;;;;;;4997389;28;19924;-75
2023/07/04 16:34:56;;;;;;;;;;;19.30;99.90;;;;;;4996085;28;19918;-75
2023/07/04 16:37:22;;;;;;;;;;;19.20;99.90;;;;;;4996284;28;19917;-76
2023/07/04 16:39:47;;;;;;;;;;;19.20;99.90;;;;;;4997438;28;20377;-75
2023/07/04 16:42:13;;;;;;;;;;;19.10;99.90;;;;;;4995799;28;19918;-74
2023/07/04 16:44:38;;;;;;;;;;;19.00;99.90;;;;;;4997452;28;19924;-75
2023/07/04 16:47:04;;;;;;;;;;;19.00;99.90;;;;;;4997403;28;19948;-74
2023/07/04 16:49:29;;;;;;;;;;;18.90;99.90;;;;;;4979464;28;19924;-74
2023/07/04 16:51:55;;;;;;;;;;;19.00;99.90;;;;;;4995773;28;19949;-75
2023/07/04 16:54:21;;;;;;;;;;;18.90;99.90;;;;;;4995838;28;19921;-73
2023/07/04 16:56:46;;;;;;;;;;;18.70;99.90;;;;;;4996047;28;19929;-76
2023/07/04 16:59:12;;;;;;;;;;;18.70;99.90;;;;;;4995990;28;20250;-77
2023/07/04 17:01:37;;;;;;;;;;;18.70;99.90;;;;;;4995378;28;20377;-75
2023/07/04 17:04:03;;;;;;;;;;;18.70;99.90;;;;;;4995625;28;19918;-76
2023/07/04 17:06:28;;;;;;;;;;;18.60;99.90;;;;;;4996740;28;19927;-75
2023/07/04 17:08:54;;;;;;;;;;;18.60;99.90;;;;;;4996748;28;20285;-75
2023/07/04 17:11:19;;;;;;;;;;;18.60;99.90;;;;;;4995445;28;20234;-75
2023/07/04 17:13:45;;;;;;;;;;;18.60;99.90;;;;;;4995494;28;19918;-76
2023/07/04 17:16:10;;;;;;;;;;;18.60;99.90;;;;;;4994153;28;19918;-73